createdAt,value
2019-02-24T00:01:37.953Z,99.90
2019-02-24T00:04:07.340Z,99.90
2019-02-24T00:06:37.108Z,99.90
2019-02-24T00:09:07.077Z,99.90
2019-02-24T00:11:36.589Z,99.90
2019-02-24T00:14:06.415Z,99.90
2019-02-24T00:16:36.137Z,99.90
2019-02-24T00:19:05.642Z,99.90
2019-02-24T00:21:35.600Z,99.90
2019-02-24T00:24:05.180Z,99.90
2019-02-24T00:26:34.712Z,99.90
2019-02-24T00:29:04.119Z,99.90
2019-02-24T00:31:33.500Z,99.90
2019-02-24T00:34:02.914Z,99.90
2019-02-24T00:36:33.041Z,99.90
2019-02-24T00:39:02.628Z,99.90
2019-02-24T00:41:32.089Z,99.90
2019-02-24T00:44:01.493Z,99.90
2019-02-24T00:46:31.577Z,99.90
2019-02-24T00:49:01.490Z,99.90
2019-02-24T00:51:31.053Z,99.90
2019-02-24T00:54:00.945Z,99.90
2019-02-24T00:56:30.682Z,99.90
2019-02-24T00:59:00.073Z,99.90
2019-02-24T01:01:29.486Z,99.90
2019-02-24T01:03:59.040Z,99.90
2019-02-24T01:06:31.535Z,99.90
2019-02-24T01:09:00.300Z,99.90
2019-02-24T01:11:29.712Z,99.90
2019-02-24T01:13:59.101Z,99.90
2019-02-24T01:16:28.506Z,99.90
2019-02-24T01:18:58.196Z,99.90
2019-02-24T01:21:27.678Z,99.90
2019-02-24T01:23:57.708Z,99.90
2019-02-24T01:26:27.168Z,99.90
2019-02-24T01:28:56.566Z,99.90
2019-02-24T01:31:26.081Z,99.90
2019-02-24T01:33:55.496Z,99.90
2019-02-24T01:36:25.350Z,99.90
2019-02-24T01:38:54.733Z,99.90
2019-02-24T01:41:24.213Z,99.90
2019-02-24T01:43:53.595Z,99.90
2019-02-24T01:46:23.074Z,99.90
2019-02-24T01:48:52.628Z,99.90
2019-02-24T01:51:22.127Z,99.90
2019-02-24T01:53:52.594Z,99.90
2019-02-24T01:56:22.081Z,99.90
2019-02-24T01:58:51.531Z,99.90
2019-02-24T02:01:20.937Z,99.90
2019-02-24T02:03:50.395Z,99.90
2019-02-24T02:06:20.123Z,99.90
2019-02-24T02:08:49.528Z,99.90
2019-02-24T02:11:19.386Z,99.90
2019-02-24T02:13:48.847Z,99.90
2019-02-24T02:16:18.739Z,99.90
2019-02-24T02:18:48.226Z,99.90
2019-02-24T02:21:17.697Z,99.90
2019-02-24T02:23:47.081Z,99.90
2019-02-24T02:26:16.648Z,99.90
2019-02-24T02:28:46.394Z,99.90
2019-02-24T02:31:15.877Z,99.50
2019-02-24T02:33:45.610Z,99.90
2019-02-24T02:36:15.720Z,99.10
2019-02-24T02:38:45.410Z,99.70
2019-02-24T02:41:14.869Z,99.90
2019-02-24T02:43:44.403Z,99.90
2019-02-24T02:46:14.156Z,99.90
2019-02-24T02:48:44.003Z,99.90
2019-02-24T02:51:13.473Z,99.90
2019-02-24T02:53:43.224Z,99.90
2019-02-24T02:56:13.233Z,99.90
2019-02-24T02:58:43.226Z,99.90
2019-02-24T03:01:12.674Z,99.90
2019-02-24T03:03:42.080Z,99.90
2019-02-24T03:06:16.678Z,99.50
2019-02-24T03:08:47.754Z,99.70
2019-02-24T03:11:17.568Z,99.80
2019-02-24T03:13:47.319Z,99.80
2019-02-24T03:16:22.985Z,99.30
2019-02-24T03:18:52.710Z,99.80
2019-02-24T03:21:22.466Z,99.30
2019-02-24T03:23:51.947Z,99.30
2019-02-24T03:26:21.324Z,99.90
2019-02-24T03:28:51.108Z,99.90
2019-02-24T03:31:20.482Z,99.90
2019-02-24T03:33:50.342Z,99.90
2019-02-24T03:36:19.814Z,99.90
2019-02-24T03:38:49.368Z,99.90
2019-02-24T03:41:19.165Z,99.90
2019-02-24T03:43:48.653Z,99.90
2019-02-24T03:46:18.449Z,99.90
2019-02-24T03:48:47.996Z,99.90
2019-02-24T03:51:17.483Z,99.90
2019-02-24T03:53:46.936Z,99.90
2019-02-24T03:56:16.400Z,99.90
2019-02-24T03:58:46.269Z,99.90
2019-02-24T04:01:15.737Z,99.90
2019-02-24T04:03:45.130Z,99.90
2019-02-24T04:06:14.606Z,99.90
2019-02-24T04:08:44.333Z,99.90
2019-02-24T04:11:14.171Z,99.90
2019-02-24T04:13:43.953Z,99.90
2019-02-24T04:16:13.449Z,99.90
2019-02-24T04:18:43.286Z,99.90
2019-02-24T04:21:12.814Z,99.90
2019-02-24T04:23:42.285Z,99.90
2019-02-24T04:26:12.420Z,99.90
2019-02-24T04:28:41.931Z,99.90
2019-02-24T04:31:11.343Z,99.90
2019-02-24T04:33:40.812Z,99.90
2019-02-24T04:36:10.208Z,99.90
2019-02-24T04:38:39.623Z,99.90
2019-02-24T04:41:09.459Z,99.90
2019-02-24T04:43:38.940Z,99.90
2019-02-24T04:46:08.714Z,99.90
2019-02-24T04:48:38.586Z,99.90
2019-02-24T04:51:07.979Z,99.90
2019-02-24T04:53:37.718Z,99.90
2019-02-24T04:56:07.559Z,99.90
2019-02-24T04:58:37.300Z,99.90
2019-02-24T05:01:06.830Z,99.90
2019-02-24T05:03:37.029Z,99.90
2019-02-24T05:06:06.493Z,99.90
2019-02-24T05:08:36.349Z,99.90
2019-02-24T05:11:06.122Z,99.90
2019-02-24T05:13:35.864Z,99.90
2019-02-24T05:16:05.341Z,99.90
2019-02-24T05:18:34.785Z,99.90
2019-02-24T05:21:04.198Z,99.90
2019-02-24T05:23:33.653Z,99.90
2019-02-24T05:26:03.390Z,99.30
2019-02-24T05:28:32.790Z,99.90
2019-02-24T05:31:02.248Z,99.90
2019-02-24T05:33:32.625Z,99.90
2019-02-24T05:36:02.119Z,99.90
2019-02-24T05:38:31.842Z,99.90
2019-02-24T05:41:01.312Z,99.90
2019-02-24T05:43:30.694Z,99.10
2019-02-24T05:46:00.164Z,98.90
2019-02-24T05:48:29.617Z,99.60
2019-02-24T05:50:59.464Z,99.30
2019-02-24T05:53:28.998Z,98.70
2019-02-24T05:55:58.478Z,99.70
2019-02-24T05:58:27.942Z,99.10
2019-02-24T06:00:58.082Z,97.90
2019-02-24T06:03:27.545Z,99.30
2019-02-24T06:05:57.312Z,99.70
2019-02-24T06:08:27.638Z,99.20
2019-02-24T06:10:57.468Z,97.90
2019-02-24T06:13:26.908Z,98.30
2019-02-24T06:15:56.291Z,99.90
2019-02-24T06:18:25.698Z,99.90
2019-02-24T06:20:55.328Z,99.70
2019-02-24T06:23:24.813Z,99.90
2019-02-24T06:25:55.038Z,99.90
2019-02-24T06:28:25.029Z,97.50
2019-02-24T06:30:55.662Z,98.80
2019-02-24T06:33:25.564Z,99.10
2019-02-24T06:35:55.314Z,98.30
2019-02-24T06:38:25.105Z,98.50
2019-02-24T06:40:54.905Z,99.10
2019-02-24T06:43:24.800Z,97.50
2019-02-24T06:45:54.938Z,97.40
2019-02-24T06:48:24.988Z,96.40
2019-02-24T06:51:00.382Z,96.30
2019-02-24T06:53:30.192Z,96.20
2019-02-24T06:56:00.018Z,95.90
2019-02-24T06:58:30.006Z,96.80
2019-02-24T07:00:59.485Z,94.50
2019-02-24T07:03:28.869Z,96.80
2019-02-24T07:05:58.966Z,95.60
2019-02-24T07:08:28.877Z,96.20
2019-02-24T07:10:58.697Z,96.30
2019-02-24T07:13:28.128Z,94.00
2019-02-24T07:15:57.596Z,94.30
2019-02-24T07:18:26.977Z,94.70
2019-02-24T07:20:56.458Z,93.20
2019-02-24T07:23:26.218Z,93.80
2019-02-24T07:25:56.461Z,94.40
2019-02-24T07:28:26.251Z,91.70
2019-02-24T07:30:55.728Z,90.20
2019-02-24T07:33:25.104Z,91.30
2019-02-24T07:35:55.209Z,90.40
2019-02-24T07:38:24.666Z,90.40
2019-02-24T07:40:54.435Z,90.40
2019-02-24T07:43:24.176Z,92.60
2019-02-24T07:45:53.934Z,85.90
2019-02-24T07:48:23.421Z,88.10
2019-02-24T07:50:52.990Z,88.50
2019-02-24T07:53:22.453Z,81.00
2019-02-24T07:55:51.941Z,83.40
2019-02-24T07:58:21.771Z,91.80
2019-02-24T08:00:51.665Z,82.20
2019-02-24T08:03:21.757Z,84.60
2019-02-24T08:05:51.808Z,83.00
2019-02-24T08:08:21.256Z,84.40
2019-02-24T08:10:51.019Z,81.40
2019-02-24T08:13:20.401Z,80.90
2019-02-24T08:15:50.215Z,78.00
2019-02-24T08:18:22.013Z,80.50
2019-02-24T08:20:51.737Z,78.20
2019-02-24T08:23:21.536Z,81.10
2019-02-24T08:25:50.946Z,77.70
2019-02-24T08:28:20.396Z,79.00
2019-02-24T08:30:49.845Z,77.70
2019-02-24T08:33:19.664Z,83.90
2019-02-24T08:35:49.848Z,74.70
2019-02-24T08:38:19.274Z,77.30
2019-02-24T08:40:48.765Z,76.70
2019-02-24T08:43:18.300Z,74.40
2019-02-24T08:45:48.106Z,75.00
2019-02-24T08:48:19.282Z,75.20
2019-02-24T08:50:49.763Z,76.50
2019-02-24T08:53:19.330Z,78.10
2019-02-24T08:55:49.125Z,70.90
2019-02-24T08:58:18.858Z,71.50
2019-02-24T09:00:51.067Z,67.90
2019-02-24T09:03:19.444Z,62.80
2019-02-24T09:05:49.145Z,65.10
2019-02-24T09:08:18.625Z,64.00
2019-02-24T09:10:48.361Z,63.30
2019-02-24T09:13:17.791Z,66.10
2019-02-24T09:15:47.281Z,66.00
2019-02-24T09:18:17.237Z,63.20
2019-02-24T09:20:47.131Z,64.00
2019-02-24T09:23:16.535Z,69.40
2019-02-24T09:25:46.116Z,67.70
2019-02-24T09:28:15.910Z,59.30
2019-02-24T09:30:45.405Z,59.30
2019-02-24T09:33:15.150Z,60.60
2019-02-24T09:35:45.476Z,62.00
2019-02-24T09:38:14.912Z,56.20
2019-02-24T09:40:44.789Z,56.80
2019-02-24T09:43:14.737Z,61.40
2019-02-24T09:45:44.160Z,56.20
2019-02-24T09:48:13.641Z,54.80
2019-02-24T09:50:43.442Z,52.20
2019-02-24T09:53:13.744Z,52.80
2019-02-24T09:55:43.189Z,54.30
2019-02-24T09:58:12.814Z,53.20
2019-02-24T10:00:42.359Z,53.50
2019-02-24T10:03:12.181Z,51.30
2019-02-24T10:05:41.637Z,51.60
2019-02-24T10:08:11.528Z,51.50
2019-02-24T10:10:41.349Z,50.90
2019-02-24T10:13:10.848Z,50.80
2019-02-24T10:15:40.314Z,49.40
2019-02-24T10:18:09.785Z,51.10
2019-02-24T10:20:39.236Z,50.00
2019-02-24T10:23:08.722Z,50.30
2019-02-24T10:25:38.189Z,50.20
2019-02-24T10:28:07.700Z,48.90
2019-02-24T10:30:37.094Z,50.30
2019-02-24T10:33:06.861Z,47.20
2019-02-24T10:35:36.421Z,50.20
2019-02-24T10:38:08.197Z,49.80
2019-02-24T10:40:37.614Z,49.70
2019-02-24T10:43:07.437Z,50.80
2019-02-24T10:45:41.314Z,48.60
2019-02-24T10:48:14.041Z,47.10
2019-02-24T10:50:42.820Z,45.90
2019-02-24T10:53:12.473Z,48.30
2019-02-24T10:55:42.237Z,46.70
2019-02-24T10:58:11.709Z,48.70
2019-02-24T11:00:41.203Z,47.80
2019-02-24T11:03:11.416Z,46.40
2019-02-24T11:05:40.900Z,48.00
2019-02-24T11:08:10.277Z,46.70
2019-02-24T11:10:39.725Z,47.20
2019-02-24T11:13:09.805Z,46.80
2019-02-24T11:15:39.381Z,47.20
2019-02-24T11:18:08.892Z,43.80
2019-02-24T11:20:38.629Z,45.10
2019-02-24T11:23:08.117Z,45.90
2019-02-24T11:25:38.183Z,48.40
2019-02-24T11:28:07.987Z,46.20
2019-02-24T11:30:37.599Z,44.50
2019-02-24T11:33:07.017Z,46.50
2019-02-24T11:35:36.776Z,43.40
2019-02-24T11:38:06.748Z,45.40
2019-02-24T11:40:36.818Z,45.90
2019-02-24T11:43:06.302Z,43.50
2019-02-24T11:45:35.838Z,44.40
2019-02-24T11:48:05.650Z,43.50
2019-02-24T11:50:35.191Z,41.20
2019-02-24T11:53:04.684Z,41.80
2019-02-24T11:55:34.362Z,41.40
2019-02-24T11:58:04.101Z,39.30
2019-02-24T12:00:33.580Z,40.40
2019-02-24T12:03:03.013Z,38.20
2019-02-24T12:05:32.533Z,39.00
2019-02-24T12:08:02.006Z,36.80
2019-02-24T12:10:31.800Z,41.40
2019-02-24T12:13:01.269Z,38.50
2019-02-24T12:15:30.794Z,39.40
2019-02-24T12:18:00.970Z,37.00
2019-02-24T12:20:30.723Z,38.40
2019-02-24T12:23:00.896Z,37.40
2019-02-24T12:25:30.689Z,37.90
2019-02-24T12:28:00.789Z,39.20
2019-02-24T12:30:31.020Z,39.70
2019-02-24T12:33:00.838Z,40.00
2019-02-24T12:35:30.990Z,41.30
2019-02-24T12:38:01.162Z,39.40
2019-02-24T12:40:30.621Z,38.50
2019-02-24T12:43:01.101Z,39.50
2019-02-24T12:45:31.372Z,40.50
2019-02-24T12:48:01.589Z,38.70
2019-02-24T12:50:31.585Z,38.70
2019-02-24T12:53:01.648Z,37.80
2019-02-24T12:55:31.503Z,37.40
2019-02-24T12:58:01.538Z,39.50
2019-02-24T13:00:31.514Z,40.40
2019-02-24T13:03:01.010Z,39.40
2019-02-24T13:05:31.191Z,37.10
2019-02-24T13:08:00.990Z,37.20
2019-02-24T13:10:30.834Z,38.70
2019-02-24T13:13:01.016Z,35.60
2019-02-24T13:15:30.489Z,37.10
2019-02-24T13:18:00.113Z,36.00
2019-02-24T13:20:29.516Z,35.60
2019-02-24T13:22:59.356Z,36.20
2019-02-24T13:25:30.146Z,35.20
2019-02-24T13:28:00.025Z,38.30
2019-02-24T13:30:30.235Z,34.50
2019-02-24T13:33:00.178Z,32.70
2019-02-24T13:35:29.596Z,32.70
2019-02-24T13:37:59.061Z,35.20
2019-02-24T13:40:30.520Z,37.60
2019-02-24T13:42:59.936Z,36.80
2019-02-24T13:45:29.444Z,36.10
2019-02-24T13:47:58.910Z,35.20
2019-02-24T13:50:28.717Z,34.70
2019-02-24T13:52:58.170Z,35.20
2019-02-24T13:55:28.415Z,37.50
2019-02-24T13:57:57.883Z,37.00
2019-02-24T14:00:27.310Z,36.30
2019-02-24T14:02:56.700Z,38.60
2019-02-24T14:05:26.112Z,36.10
2019-02-24T14:07:55.888Z,34.90
2019-02-24T14:10:25.381Z,34.90
2019-02-24T14:12:54.773Z,35.40
2019-02-24T14:15:24.586Z,34.80
2019-02-24T14:17:54.006Z,35.40
2019-02-24T14:20:23.484Z,35.10
2019-02-24T14:22:53.799Z,35.20
2019-02-24T14:25:23.309Z,37.20
2019-02-24T14:27:53.141Z,36.10
2019-02-24T14:30:22.946Z,35.30
2019-02-24T14:32:53.065Z,41.60
2019-02-24T14:35:22.552Z,38.90
2019-02-24T14:37:51.967Z,39.00
2019-02-24T14:40:21.733Z,35.10
2019-02-24T14:42:51.507Z,35.10
2019-02-24T14:45:21.017Z,35.00
2019-02-24T14:47:50.721Z,32.70
2019-02-24T14:50:20.838Z,35.40
2019-02-24T14:52:50.315Z,33.50
2019-02-24T14:55:19.726Z,34.50
2019-02-24T14:57:49.198Z,34.80
2019-02-24T15:00:18.824Z,33.40
2019-02-24T15:02:48.313Z,35.40
2019-02-24T15:05:17.772Z,32.80
2019-02-24T15:07:47.221Z,34.10
2019-02-24T15:10:17.157Z,32.70
2019-02-24T15:12:47.201Z,32.00
2019-02-24T15:15:17.939Z,33.80
2019-02-24T15:17:47.823Z,35.70
2019-02-24T15:20:18.684Z,36.80
2019-02-24T15:22:48.167Z,34.30
2019-02-24T15:25:17.781Z,36.70
2019-02-24T15:27:47.306Z,36.60
2019-02-24T15:30:19.561Z,37.60
2019-02-24T15:32:51.979Z,37.00
2019-02-24T15:35:22.405Z,38.90
2019-02-24T15:37:52.870Z,37.00
2019-02-24T15:40:22.337Z,37.90
2019-02-24T15:42:51.868Z,35.60
2019-02-24T15:45:21.482Z,37.60
2019-02-24T15:47:50.942Z,38.80
2019-02-24T15:50:20.465Z,37.30
2019-02-24T15:52:49.883Z,38.30
2019-02-24T15:55:19.958Z,39.90
2019-02-24T15:57:49.437Z,40.10
2019-02-24T16:00:19.293Z,39.70
2019-02-24T16:02:48.990Z,43.20
2019-02-24T16:05:19.593Z,40.70
2019-02-24T16:07:49.260Z,40.70
2019-02-24T16:10:19.050Z,43.80
2019-02-24T16:12:48.588Z,46.50
2019-02-24T16:15:18.374Z,44.00
2019-02-24T16:17:50.016Z,44.60
2019-02-24T16:20:21.802Z,51.90
2019-02-24T16:22:51.579Z,46.60
2019-02-24T16:25:21.393Z,47.00
2019-02-24T16:27:50.786Z,52.40
2019-02-24T16:30:22.098Z,48.80
2019-02-24T16:32:51.591Z,50.90
2019-02-24T16:35:21.676Z,51.70
2019-02-24T16:37:51.145Z,49.40
2019-02-24T16:40:20.704Z,52.50
2019-02-24T16:42:51.984Z,53.00
2019-02-24T16:45:21.495Z,49.30
2019-02-24T16:47:50.975Z,52.90
2019-02-24T16:50:20.473Z,53.20
2019-02-24T16:52:49.990Z,50.10
2019-02-24T16:55:20.489Z,57.30
2019-02-24T16:57:50.496Z,62.30
2019-02-24T17:00:20.515Z,62.30
2019-02-24T17:02:49.994Z,58.50
2019-02-24T17:05:19.826Z,63.10
2019-02-24T17:07:50.028Z,56.50
2019-02-24T17:10:20.158Z,56.30
2019-02-24T17:12:49.631Z,59.80
2019-02-24T17:15:19.205Z,62.90
2019-02-24T17:17:48.788Z,71.70
2019-02-24T17:20:18.637Z,67.50
2019-02-24T17:22:49.221Z,67.00
2019-02-24T17:25:18.712Z,68.40
2019-02-24T17:27:48.535Z,70.90
2019-02-24T17:30:18.370Z,78.00
2019-02-24T17:32:48.165Z,73.90
2019-02-24T17:35:17.636Z,77.70
2019-02-24T17:37:47.629Z,74.60
2019-02-24T17:40:19.240Z,72.30
2019-02-24T17:42:48.372Z,79.00
2019-02-24T17:45:19.659Z,70.90
2019-02-24T17:47:49.821Z,77.00
2019-02-24T17:50:19.220Z,73.30
2019-02-24T17:52:48.932Z,80.20
2019-02-24T17:55:18.388Z,76.40
2019-02-24T17:57:47.884Z,70.00
2019-02-24T18:00:20.910Z,78.50
2019-02-24T18:02:50.719Z,75.10
2019-02-24T18:05:20.091Z,72.90
2019-02-24T18:07:49.840Z,78.70
2019-02-24T18:10:19.208Z,81.40
2019-02-24T18:12:48.620Z,78.90
2019-02-24T18:15:18.383Z,78.40
2019-02-24T18:17:47.984Z,74.00
2019-02-24T18:20:17.393Z,79.20
2019-02-24T18:22:46.787Z,84.00
2019-02-24T18:25:16.246Z,87.80
2019-02-24T18:27:46.153Z,88.50
2019-02-24T18:30:18.277Z,77.60
2019-02-24T18:32:48.107Z,78.50
2019-02-24T18:35:18.650Z,82.90
2019-02-24T18:37:48.150Z,89.60
2019-02-24T18:40:17.768Z,81.00
2019-02-24T18:42:47.541Z,83.60
2019-02-24T18:45:17.244Z,77.40
2019-02-24T18:47:49.836Z,80.70
2019-02-24T18:50:19.379Z,86.60
2019-02-24T18:52:48.878Z,79.90
2019-02-24T18:55:18.353Z,84.20
2019-02-24T18:57:47.934Z,77.30
2019-02-24T19:00:18.033Z,78.10
2019-02-24T19:02:47.413Z,70.10
2019-02-24T19:05:17.961Z,70.60
2019-02-24T19:07:47.416Z,70.20
2019-02-24T19:10:17.137Z,62.50
2019-02-24T19:12:47.343Z,61.90
2019-02-24T19:15:17.669Z,64.80
2019-02-24T19:17:47.214Z,62.30
2019-02-24T19:20:18.433Z,61.30
2019-02-24T19:22:47.983Z,61.60
2019-02-24T19:25:18.354Z,61.50
2019-02-24T19:27:47.835Z,62.00
2019-02-24T19:30:17.683Z,63.80
2019-02-24T19:32:47.484Z,60.50
2019-02-24T19:35:17.100Z,60.10
2019-02-24T19:37:47.007Z,59.10
2019-02-24T19:40:17.437Z,59.00
2019-02-24T19:42:53.520Z,58.60
2019-02-24T19:45:23.009Z,59.30
2019-02-24T19:47:52.416Z,58.90
2019-02-24T19:50:21.820Z,58.80
2019-02-24T19:52:51.385Z,57.60
2019-02-24T19:55:20.850Z,58.40
2019-02-24T19:57:50.312Z,57.80
2019-02-24T20:00:21.233Z,57.80
2019-02-24T20:02:50.910Z,58.20
2019-02-24T20:05:20.843Z,60.50
2019-02-24T20:07:51.002Z,61.60
2019-02-24T20:10:21.237Z,69.00
2019-02-24T20:12:50.665Z,70.40
2019-02-24T20:15:20.178Z,76.40
2019-02-24T20:17:49.539Z,86.60
2019-02-24T20:20:18.962Z,87.90
2019-02-24T20:22:48.336Z,91.50
2019-02-24T20:25:17.886Z,93.60
2019-02-24T20:27:47.348Z,90.80
2019-02-24T20:30:19.336Z,92.20
2019-02-24T20:32:49.224Z,90.80
2019-02-24T20:35:19.137Z,88.50
2019-02-24T20:37:48.844Z,90.80
2019-02-24T20:40:18.559Z,90.20
2019-02-24T20:42:48.012Z,96.80
2019-02-24T20:45:18.440Z,91.40
2019-02-24T20:47:48.413Z,82.40
2019-02-24T20:50:19.189Z,82.10
2019-02-24T20:52:48.721Z,91.00
2019-02-24T20:55:19.071Z,90.90
2019-02-24T20:57:48.670Z,91.00
2019-02-24T21:00:26.477Z,82.50
2019-02-24T21:02:56.634Z,90.60
2019-02-24T21:05:26.448Z,92.30
2019-02-24T21:07:56.226Z,92.70
2019-02-24T21:10:25.661Z,92.00
2019-02-24T21:12:55.056Z,93.30
2019-02-24T21:15:24.516Z,94.90
2019-02-24T21:17:54.004Z,93.10
2019-02-24T21:20:25.557Z,94.60
2019-02-24T21:22:55.029Z,93.00
2019-02-24T21:25:24.409Z,95.10
2019-02-24T21:27:53.862Z,98.10
2019-02-24T21:30:23.621Z,99.70
2019-02-24T21:32:53.667Z,99.90
2019-02-24T21:35:23.374Z,96.10
2019-02-24T21:37:53.141Z,97.70
2019-02-24T21:40:23.569Z,88.10
2019-02-24T21:42:53.717Z,91.60
2019-02-24T21:45:23.281Z,90.00
2019-02-24T21:47:52.654Z,85.30
2019-02-24T21:50:22.220Z,81.60
2019-02-24T21:52:52.137Z,80.90
2019-02-24T21:55:22.367Z,83.40
2019-02-24T21:57:51.827Z,80.00
2019-02-24T22:00:22.009Z,90.00
2019-02-24T22:02:51.800Z,78.90
2019-02-24T22:05:21.505Z,79.00
2019-02-24T22:07:50.904Z,84.20
2019-02-24T22:10:20.824Z,81.60
2019-02-24T22:12:50.349Z,80.50
2019-02-24T22:15:20.349Z,81.30
2019-02-24T22:17:50.452Z,78.40
2019-02-24T22:20:20.035Z,85.00
2019-02-24T22:22:49.551Z,83.80
2019-02-24T22:25:18.958Z,78.60
2019-02-24T22:27:48.769Z,78.20
2019-02-24T22:30:22.876Z,78.80
2019-02-24T22:32:52.357Z,77.30
2019-02-24T22:35:22.073Z,80.40
2019-02-24T22:37:51.839Z,78.50
2019-02-24T22:40:21.644Z,79.70
2019-02-24T22:42:51.432Z,77.30
2019-02-24T22:45:20.861Z,79.10
2019-02-24T22:47:50.406Z,75.00
2019-02-24T22:50:20.180Z,75.60
2019-02-24T22:52:49.613Z,76.10
2019-02-24T22:55:19.173Z,74.60
2019-02-24T22:57:49.313Z,72.50
2019-02-24T23:00:58.554Z,76.60
2019-02-24T23:03:30.630Z,73.30
2019-02-24T23:06:00.539Z,81.10
2019-02-24T23:08:30.408Z,74.00
2019-02-24T23:10:59.789Z,71.60
2019-02-24T23:13:29.196Z,76.30
2019-02-24T23:15:58.689Z,77.90
2019-02-24T23:18:28.096Z,83.30
2019-02-24T23:20:58.218Z,83.40
2019-02-24T23:23:27.961Z,78.30
2019-02-24T23:25:57.333Z,74.40
2019-02-24T23:28:27.447Z,75.30
2019-02-24T23:30:56.900Z,71.60
2019-02-24T23:33:26.313Z,73.80
2019-02-24T23:35:57.470Z,72.00
2019-02-24T23:38:27.489Z,71.10
2019-02-24T23:40:57.003Z,73.00
2019-02-24T23:43:26.800Z,70.40
2019-02-24T23:46:15.561Z,74.70
2019-02-24T23:48:45.375Z,68.90
2019-02-24T23:51:15.213Z,67.40
2019-02-24T23:53:44.598Z,72.30
2019-02-24T23:56:14.069Z,66.70
2019-02-24T23:58:43.454Z,67.60
